createdAt,value
2022-08-07T00:01:44.340Z,17.91
2022-08-07T00:05:05.811Z,17.73
2022-08-07T00:08:27.104Z,18.10
2022-08-07T00:11:55.443Z,17.57
2022-08-07T00:15:19.809Z,17.47
2022-08-07T00:18:42.503Z,18.03
2022-08-07T00:22:04.564Z,17.55
2022-08-07T00:25:26.021Z,17.06
2022-08-07T00:28:56.803Z,17.54
2022-08-07T00:32:19.595Z,18.28
2022-08-07T00:35:51.081Z,17.57
2022-08-07T00:39:16.945Z,17.73
2022-08-07T00:42:39.454Z,18.38
2022-08-07T00:46:02.366Z,17.97
2022-08-07T00:49:24.814Z,17.29
2022-08-07T00:53:09.125Z,16.72
2022-08-07T00:56:34.017Z,17.94
2022-08-07T00:59:55.495Z,17.80
2022-08-07T01:03:16.916Z,18.44
2022-08-07T01:06:39.370Z,16.78
2022-08-07T01:10:05.182Z,16.49
2022-08-07T01:13:28.437Z,16.15
2022-08-07T01:16:57.899Z,16.25
2022-08-07T01:20:30.630Z,16.24
2022-08-07T01:23:55.641Z,16.47
2022-08-07T01:27:19.544Z,15.89
2022-08-07T01:30:42.910Z,15.87
2022-08-07T01:34:06.995Z,16.34
2022-08-07T01:37:35.280Z,16.53
2022-08-07T01:41:02.006Z,17.54
2022-08-07T01:44:24.773Z,16.55
2022-08-07T01:48:18.212Z,15.95
2022-08-07T01:52:01.960Z,15.66
2022-08-07T01:55:22.031Z,16.20
2022-08-07T01:58:51.721Z,15.53
2022-08-07T02:02:32.883Z,15.31
2022-08-07T02:06:08.890Z,15.28
2022-08-07T02:09:53.083Z,15.48
2022-08-07T02:13:18.044Z,15.22
2022-08-07T02:16:50.302Z,15.44
2022-08-07T02:20:19.733Z,16.14
2022-08-07T02:23:46.201Z,16.38
2022-08-07T02:27:08.654Z,15.62
2022-08-07T02:30:32.734Z,16.12
2022-08-07T02:34:10.911Z,15.49
2022-08-07T02:37:44.205Z,15.35
2022-08-07T02:41:08.012Z,16.58
2022-08-07T02:44:34.737Z,17.26
2022-08-07T02:48:01.606Z,17.26
2022-08-07T02:51:42.921Z,17.09
2022-08-07T02:55:27.331Z,17.48
2022-08-07T02:58:53.962Z,17.44
2022-08-07T03:02:17.585Z,16.65
2022-08-07T03:05:39.654Z,17.27
2022-08-07T03:09:07.496Z,17.27
2022-08-07T03:12:33.712Z,16.92
2022-08-07T03:16:01.087Z,17.09
2022-08-07T03:19:28.914Z,17.12
2022-08-07T03:23:00.474Z,16.79
2022-08-07T03:26:26.969Z,16.73
2022-08-07T03:29:51.116Z,16.07
2022-08-07T03:33:17.984Z,16.83
2022-08-07T03:36:42.826Z,16.08
2022-08-07T03:40:15.524Z,16.03
2022-08-07T03:43:40.346Z,15.92
2022-08-07T03:47:19.729Z,16.99
2022-08-07T03:50:56.188Z,16.84
2022-08-07T03:54:35.488Z,17.27
2022-08-07T03:58:35.388Z,16.29
2022-08-07T04:01:48.087Z,15.99
2022-08-07T04:05:15.370Z,16.17
2022-08-07T04:08:38.467Z,16.07
2022-08-07T04:12:27.143Z,16.54
2022-08-07T04:15:42.588Z,16.78
2022-08-07T04:19:15.019Z,16.50
2022-08-07T04:22:53.490Z,16.09
2022-08-07T04:26:28.678Z,16.80
2022-08-07T04:30:01.565Z,16.73
2022-08-07T04:33:32.939Z,15.33
2022-08-07T04:37:00.975Z,16.42
2022-08-07T04:40:22.956Z,15.39
2022-08-07T04:44:13.119Z,15.86
2022-08-07T04:47:57.030Z,15.22
2022-08-07T04:51:29.419Z,15.72
2022-08-07T04:55:00.951Z,15.72
2022-08-07T04:58:48.788Z,15.44
2022-08-07T05:02:22.165Z,15.11
2022-08-07T05:05:54.009Z,15.23
2022-08-07T05:09:43.046Z,16.38
2022-08-07T05:14:54.300Z,16.21
2022-08-07T05:17:00.129Z,16.19
2022-08-07T05:20:27.350Z,16.45
2022-08-07T05:23:58.647Z,16.69
2022-08-07T05:28:02.672Z,17.29
2022-08-07T05:31:06.522Z,17.34
2022-08-07T05:34:31.047Z,17.30
2022-08-07T05:38:08.572Z,18.11
2022-08-07T05:42:01.564Z,17.65
2022-08-07T05:45:46.228Z,18.22
2022-08-07T05:49:01.406Z,18.33
2022-08-07T05:52:34.845Z,18.30
2022-08-07T05:56:05.631Z,18.48
2022-08-07T05:59:47.304Z,18.00
2022-08-07T06:03:17.187Z,18.52
2022-08-07T06:06:46.277Z,17.98
2022-08-07T06:10:15.467Z,18.12
2022-08-07T06:14:12.077Z,17.80
2022-08-07T06:17:22.829Z,17.74
2022-08-07T06:22:14.367Z,18.95
2022-08-07T06:24:57.852Z,19.21
2022-08-07T06:28:27.799Z,19.42
2022-08-07T06:31:50.894Z,18.57
2022-08-07T06:35:18.097Z,18.54
2022-08-07T06:38:51.279Z,18.71
2022-08-07T06:42:35.050Z,18.72
2022-08-07T06:46:03.322Z,19.15
2022-08-07T06:49:28.559Z,20.06
2022-08-07T06:52:54.034Z,20.05
2022-08-07T06:56:39.430Z,19.79
2022-08-07T07:00:27.537Z,20.00
2022-08-07T07:04:04.242Z,20.10
2022-08-07T07:07:59.772Z,20.54
2022-08-07T07:12:09.168Z,21.53
2022-08-07T07:15:03.303Z,21.34
2022-08-07T07:18:33.091Z,20.76
2022-08-07T07:22:34.479Z,21.05
2022-08-07T07:26:33.964Z,20.85
2022-08-07T07:30:09.294Z,21.53
2022-08-07T07:33:23.634Z,21.58
2022-08-07T07:36:54.031Z,22.07
2022-08-07T07:40:18.326Z,22.37
2022-08-07T07:44:13.600Z,22.78
2022-08-07T07:47:26.722Z,22.88
2022-08-07T07:50:52.191Z,22.51
2022-08-07T07:54:19.572Z,22.52
2022-08-07T07:57:53.201Z,22.61
2022-08-07T08:02:05.091Z,23.50
2022-08-07T08:04:58.402Z,23.16
2022-08-07T08:08:34.720Z,23.51
2022-08-07T08:12:05.000Z,23.79
2022-08-07T08:15:28.550Z,23.35
2022-08-07T08:20:16.197Z,23.11
2022-08-07T08:23:15.565Z,24.13
2022-08-07T08:26:54.295Z,24.28
2022-08-07T08:30:19.461Z,23.57
2022-08-07T08:33:49.000Z,24.03
2022-08-07T08:37:59.196Z,24.49
2022-08-07T08:41:00.438Z,24.20
2022-08-07T08:44:31.570Z,24.39
2022-08-07T08:48:10.925Z,24.08
2022-08-07T08:52:00.892Z,25.02
2022-08-07T08:55:54.560Z,25.00
2022-08-07T08:59:18.591Z,24.80
2022-08-07T09:02:49.628Z,25.49
2022-08-07T09:06:27.652Z,25.64
2022-08-07T09:10:02.548Z,24.82
2022-08-07T09:13:37.059Z,25.75
2022-08-07T09:17:13.697Z,26.50
2022-08-07T09:20:58.460Z,26.30
2022-08-07T09:24:58.837Z,26.48
2022-08-07T09:30:01.070Z,26.44
2022-08-07T09:32:26.340Z,26.20
2022-08-07T09:36:01.327Z,25.47
2022-08-07T09:39:55.212Z,26.53
2022-08-07T09:44:03.112Z,26.83
2022-08-07T09:47:52.192Z,25.91
2022-08-07T09:52:16.132Z,26.03
2022-08-07T09:55:29.274Z,26.96
2022-08-07T09:59:37.132Z,28.26
2022-08-07T10:04:04.898Z,27.80
2022-08-07T10:07:52.548Z,27.80
2022-08-07T10:12:01.612Z,27.56
2022-08-07T10:15:27.855Z,28.31
2022-08-07T10:19:11.140Z,28.30
2022-08-07T10:22:56.163Z,28.77
2022-08-07T10:26:35.274Z,26.13
2022-08-07T10:30:06.890Z,25.74
2022-08-07T10:34:06.309Z,25.38
2022-08-07T10:37:59.978Z,25.57
2022-08-07T10:41:51.790Z,26.62
2022-08-07T10:45:57.677Z,26.95
2022-08-07T10:49:49.250Z,24.76
2022-08-07T10:53:21.452Z,24.18
2022-08-07T10:57:00.131Z,25.18
2022-08-07T11:00:39.114Z,24.81
2022-08-07T11:04:31.608Z,24.57
2022-08-07T11:08:03.930Z,25.71
2022-08-07T11:11:35.990Z,25.47
2022-08-07T11:15:14.481Z,24.89
2022-08-07T11:18:43.780Z,25.02
2022-08-07T11:22:26.289Z,26.10
2022-08-07T11:25:53.911Z,28.17
2022-08-07T11:29:41.202Z,28.06
2022-08-07T11:33:14.245Z,28.34
2022-08-07T11:36:47.047Z,27.04
2022-08-07T11:40:22.389Z,26.23
2022-08-07T11:44:12.093Z,27.20
2022-08-07T11:47:59.216Z,26.20
2022-08-07T11:51:44.958Z,26.28
2022-08-07T11:55:19.015Z,26.39
2022-08-07T12:00:07.572Z,27.31
2022-08-07T12:03:45.767Z,27.93
2022-08-07T12:07:27.692Z,28.41
2022-08-07T12:11:20.717Z,29.48
2022-08-07T12:14:55.561Z,28.00
2022-08-07T12:18:29.874Z,27.49
2022-08-07T12:22:37.957Z,27.09
2022-08-07T12:26:06.138Z,26.51
2022-08-07T12:29:44.287Z,27.47
2022-08-07T12:33:23.287Z,27.85
2022-08-07T12:36:54.628Z,28.13
2022-08-07T12:40:47.129Z,28.32
2022-08-07T12:44:15.337Z,28.67
2022-08-07T12:47:45.060Z,29.68
2022-08-07T12:51:17.557Z,28.68
2022-08-07T12:54:54.628Z,27.11
2022-08-07T12:58:20.934Z,27.28
2022-08-07T13:02:10.141Z,25.83
2022-08-07T13:06:02.847Z,27.19
2022-08-07T13:10:36.721Z,28.39
2022-08-07T13:13:50.278Z,29.17
2022-08-07T13:17:21.247Z,28.52
2022-08-07T13:20:51.138Z,28.41
2022-08-07T13:24:25.838Z,28.38
2022-08-07T13:28:14.012Z,27.91
2022-08-07T13:31:55.207Z,27.59
2022-08-07T13:36:00.333Z,28.41
2022-08-07T13:39:28.712Z,27.37
2022-08-07T13:43:11.789Z,27.32
2022-08-07T13:46:48.882Z,27.96
2022-08-07T13:50:34.858Z,28.14
2022-08-07T13:54:03.499Z,27.99
2022-08-07T13:57:37.680Z,27.48
2022-08-07T14:01:09.376Z,27.63
2022-08-07T14:04:36.133Z,27.88
2022-08-07T14:08:01.211Z,28.25
2022-08-07T14:11:29.247Z,28.20
2022-08-07T14:15:23.821Z,28.43
2022-08-07T14:18:49.787Z,28.52
2022-08-07T14:22:34.358Z,28.83
2022-08-07T14:26:08.647Z,29.53
2022-08-07T14:33:44.879Z,28.95
2022-08-07T14:37:16.122Z,29.20
2022-08-07T14:40:39.458Z,29.32
2022-08-07T14:44:11.946Z,29.37
2022-08-07T14:47:41.152Z,29.01
2022-08-07T14:55:01.688Z,28.34
2022-08-07T14:58:31.086Z,28.52
2022-08-07T15:01:58.230Z,28.44
2022-08-07T15:05:26.758Z,28.43
2022-08-07T15:08:54.926Z,29.27
2022-08-07T15:12:25.801Z,28.09
2022-08-07T15:15:57.738Z,27.45
2022-08-07T15:23:20.285Z,27.72
2022-08-07T15:26:47.570Z,27.99
2022-08-07T15:30:16.680Z,27.72
2022-08-07T15:33:45.357Z,27.49
2022-08-07T15:37:12.632Z,27.45
2022-08-07T15:41:22.981Z,27.90
2022-08-07T15:44:52.018Z,28.61
2022-08-07T15:48:31.659Z,27.89
2022-08-07T15:55:23.225Z,27.35
2022-08-07T15:59:06.713Z,27.13
2022-08-07T16:02:46.670Z,26.77
2022-08-07T16:06:10.275Z,27.25
2022-08-07T16:09:42.582Z,26.64
2022-08-07T16:13:58.983Z,26.81
2022-08-07T16:18:02.449Z,27.38
2022-08-07T16:21:43.960Z,26.84
2022-08-07T16:25:22.837Z,26.87
2022-08-07T16:29:18.474Z,27.13
2022-08-07T16:32:46.186Z,26.65
2022-08-07T16:36:20.474Z,26.86
2022-08-07T16:40:04.338Z,26.76
2022-08-07T16:44:03.908Z,27.38
2022-08-07T16:48:30.075Z,26.52
2022-08-07T16:52:51.030Z,27.28
